Time;durP1;ratioP1;P1;durP2;ratioP2;P2;SDS_P1;SDS_P2;PMS_P1;PMS_P2;Temp;Humidity;BMP_temperature;BMP_pressure;BME280_temperature;BME280_humidity;BME280_pressure;Samples;Min_cycle;Max_cycle;Signal;HPM_P1;HPM_P2
2021/04/07 00:00:00;;;;;;;11.98;2.20;;;;;;;-0.22;79.33;101322.25;4993963;28;20170;-57
2021/04/07 00:02:26;;;;;;;11.13;2.00;;;;;;;-0.19;79.37;101317.00;5012567;28;20049;-57
2021/04/07 00:05:01;;;;;;;7.68;1.98;;;;;;;-0.24;79.85;101318.78;5014237;28;20449;-54
2021/04/07 00:07:28;;;;;;;10.75;1.67;;;;;;;-0.15;78.60;101316.97;5009766;28;20045;-54
2021/04/07 00:09:55;;;;;;;6.75;1.50;;;;;;;-0.24;78.97;101323.97;5011402;28;20528;-54
2021/04/07 00:12:24;;;;;;;6.82;1.40;;;;;;;-0.27;78.99;101321.44;5011113;28;20050;-57
2021/04/07 00:14:52;;;;;;;8.95;1.58;;;;;;;-0.31;79.88;101331.81;5010683;28;20100;-54
2021/04/07 00:17:20;;;;;;;10.93;1.90;;;;;;;-0.35;79.75;101331.84;4994596;28;20477;-52
2021/04/07 00:19:46;;;;;;;5.93;1.52;;;;;;;-0.31;79.80;101331.81;5011089;28;20069;-57
2021/04/07 00:22:13;;;;;;;11.32;1.85;;;;;;;-0.37;80.01;101330.16;5010653;28;20089;-57
2021/04/07 00:24:45;;;;;;;14.13;2.13;;;;;;;-0.35;80.14;101337.03;4995585;28;20077;-56
2021/04/07 00:27:16;;;;;;;9.27;1.85;;;;;;;-0.31;80.10;101331.81;5011256;28;20471;-55
2021/04/07 00:29:46;;;;;;;9.68;1.65;;;;;;;-0.34;80.29;101337.91;5012383;28;20112;-55
2021/04/07 00:32:15;;;;;;;10.25;1.95;;;;;;;-0.32;80.00;101328.38;5006632;28;20133;-53
2021/04/07 00:34:43;;;;;;;7.03;1.38;;;;;;;-0.33;79.82;101331.00;5009935;28;20050;-54
2021/04/07 00:37:10;;;;;;;8.02;1.88;;;;;;;-0.34;80.00;101327.56;5009067;28;20088;-54
2021/04/07 00:39:36;;;;;;;11.10;1.63;;;;;;;-0.34;79.77;101327.56;5010924;28;20044;-54
2021/04/07 00:42:04;;;;;;;10.57;2.42;;;;;;;-0.35;79.78;101325.84;5009645;28;20042;-55
2021/04/07 00:44:32;;;;;;;9.93;1.40;;;;;;;-0.32;79.44;101330.13;5008473;28;20065;-53
2021/04/07 00:46:59;;;;;;;7.65;1.38;;;;;;;-0.34;78.86;101327.56;5000370;28;20400;-53
2021/04/07 00:49:26;;;;;;;6.57;1.50;;;;;;;-0.39;79.19;101334.50;4992781;28;20037;-58
2021/04/07 00:51:54;;;;;;;5.93;1.30;;;;;;;-0.36;79.37;101337.03;5010948;28;20053;-58
2021/04/07 00:54:21;;;;;;;7.90;1.67;;;;;;;-0.46;79.72;101338.00;5006334;28;20045;-55
2021/04/07 00:56:49;;;;;;;9.20;2.50;;;;;;;-0.45;80.17;101334.56;4993164;28;20054;-55
2021/04/07 00:59:17;;;;;;;6.70;1.75;;;;;;;-0.46;80.33;101330.25;5009905;28;20050;-58
2021/04/07 01:01:44;;;;;;;8.85;1.98;;;;;;;-0.50;80.10;101339.78;5008096;28;20049;-52
2021/04/07 01:04:11;;;;;;;6.57;1.77;;;;;;;-0.52;81.02;101339.81;5010877;28;20057;-52
2021/04/07 01:06:42;;;;;;;8.13;1.83;;;;;;;-0.48;80.85;101334.59;5010603;28;20068;-52
2021/04/07 01:09:09;;;;;;;6.18;1.73;;;;;;;-0.48;81.25;101330.28;5009653;28;20046;-52
2021/04/07 01:11:40;;;;;;;6.35;2.08;;;;;;;-0.49;81.29;101333.75;5007578;28;20037;-53
2021/04/07 01:14:07;;;;;;;8.80;2.10;;;;;;;-0.51;81.75;101328.59;4993107;28;20037;-53
2021/04/07 01:16:33;;;;;;;9.07;2.90;;;;;;;-0.48;81.85;101316.50;5009843;28;20496;-53
2021/04/07 01:19:03;;;;;;;13.52;4.28;;;;;;;-0.47;82.56;101320.81;5009837;28;20049;-53
2021/04/07 01:21:30;;;;;;;16.17;5.80;;;;;;;-0.48;82.14;101324.28;4993145;28;20133;-56
2021/04/07 01:23:57;;;;;;;19.27;5.65;;;;;;;-0.42;82.28;101322.47;5006683;28;20041;-57
2021/04/07 01:26:23;;;;;;;14.95;6.10;;;;;;;-0.44;82.16;101323.34;5004399;28;20054;-57
2021/04/07 01:28:50;;;;;;;15.63;5.63;;;;;;;-0.39;82.54;101319.00;5009581;28;20125;-57
2021/04/07 01:31:19;;;;;;;17.25;5.43;;;;;;;-0.38;82.32;101333.63;4994496;28;20046;-54
2021/04/07 01:33:46;;;;;;;16.48;5.60;;;;;;;-0.41;82.52;101325.91;4994191;28;20484;-55
2021/04/07 01:36:13;;;;;;;13.20;4.72;;;;;;;-0.39;82.52;101326.75;5010338;28;20042;-56
2021/04/07 01:38:40;;;;;;;15.02;4.72;;;;;;;-0.43;82.68;101335.41;5008287;28;20050;-57
2021/04/07 01:41:07;;;;;;;14.43;4.45;;;;;;;-0.43;82.57;101330.25;5007831;28;20061;-57
2021/04/07 01:43:36;;;;;;;14.05;4.15;;;;;;;-0.41;83.33;101325.91;5006674;28;20069;-57
2021/04/07 01:46:04;;;;;;;17.95;4.35;;;;;;;-0.37;83.52;101325.00;5024666;28;20057;-54
2021/04/07 01:48:31;;;;;;;11.88;4.25;;;;;;;-0.40;84.12;101315.53;5017500;28;20046;-54
2021/04/07 01:50:59;;;;;;;15.13;3.58;;;;;;;-0.36;84.02;101316.38;5008976;28;20141;-57
2021/04/07 01:53:28;;;;;;;14.82;4.00;;;;;;;-0.38;84.59;101310.38;4990513;28;20056;-53
2021/04/07 01:55:55;;;;;;;12.48;3.90;;;;;;;-0.33;84.90;101323.22;5010650;28;20062;-57
2021/04/07 01:58:36;;;;;;;13.10;3.70;;;;;;;-0.35;84.94;101320.66;5008265;28;20432;-57
2021/04/07 02:01:03;;;;;;;14.02;3.92;;;;;;;-0.33;85.01;101320.66;4989702;28;20520;-56
2021/04/07 02:03:30;;;;;;;12.50;4.90;;;;;;;-0.32;85.09;101314.63;5006663;28;20034;-56
2021/04/07 02:05:59;;;;;;;10.63;3.63;;;;;;;-0.28;85.59;101309.38;5013049;28;20096;-56
2021/04/07 02:08:26;;;;;;;13.18;3.85;;;;;;;-0.28;85.48;101317.13;5007133;28;21031;-55
2021/04/07 02:10:53;;;;;;;12.73;3.17;;;;;;;-0.30;85.71;101318.91;4994294;28;20046;-55
2021/04/07 02:13:19;;;;;;;14.40;3.38;;;;;;;-0.20;85.82;101319.63;5008890;28;20052;-53
2021/04/07 02:15:46;;;;;;;11.18;3.33;;;;;;;-0.22;86.17;101327.41;5008935;28;20082;-52
2021/04/07 02:18:13;;;;;;;10.20;3.40;;;;;;;-0.24;86.35;101323.13;5011531;28;20042;-55
2021/04/07 02:20:39;;;;;;;10.02;3.90;;;;;;;-0.26;86.93;101315.41;5023268;28;20042;-52
2021/04/07 02:23:06;;;;;;;9.57;3.50;;;;;;;-0.21;86.51;101317.91;5007835;28;20042;-56
2021/04/07 02:25:38;;;;;;;13.75;4.18;;;;;;;-0.22;86.61;101321.38;5009319;28;20048;-54
2021/04/07 02:28:05;;;;;;;14.20;3.78;;;;;;;-0.20;86.75;101330.81;5009410;28;20107;-52
2021/04/07 02:30:35;;;;;;;7.80;3.58;;;;;;;-0.17;86.48;101314.41;5007617;28;20416;-55
2021/04/07 02:33:02;;;;;;;16.05;3.67;;;;;;;-0.09;86.26;101311.72;5004989;28;20042;-55
2021/04/07 02:35:34;;;;;;;9.55;3.30;;;;;;;-0.13;86.61;101308.31;5008037;28;20160;-55
2021/04/07 02:38:01;;;;;;;10.02;3.25;;;;;;;-0.10;86.09;101308.28;5009250;28;20056;-55
2021/04/07 02:40:27;;;;;;;8.88;3.00;;;;;;;-0.11;86.33;101303.13;5006678;28;20504;-56
2021/04/07 02:42:54;;;;;;;5.72;2.30;;;;;;;-0.09;86.18;101309.16;5008704;28;20041;-56
2021/04/07 02:45:27;;;;;;;10.32;2.60;;;;;;;-0.01;86.12;101305.56;5006750;28;20041;-53
2021/04/07 02:47:57;;;;;;;9.13;2.95;;;;;;;0.04;86.13;101300.34;5005215;28;20033;-56
2021/04/07 02:50:24;;;;;;;6.95;2.83;;;;;;;0.04;86.05;101294.31;5010734;28;20034;-56
2021/04/07 02:52:57;;;;;;;7.90;2.97;;;;;;;0.03;86.17;101305.50;5005027;28;20144;-53
2021/04/07 02:55:26;;;;;;;8.43;3.22;;;;;;;-0.02;85.87;101309.03;4992778;28;20046;-56
2021/04/07 02:57:53;;;;;;;7.57;2.60;;;;;;;-0.03;86.74;101306.47;5007040;28;20453;-56
2021/04/07 03:00:21;;;;;;;7.38;2.42;;;;;;;-0.06;86.46;101302.19;5009438;28;20042;-53
2021/04/07 03:02:48;;;;;;;7.93;2.58;;;;;;;-0.08;86.71;101298.78;5009272;28;20065;-55
2021/04/07 03:05:14;;;;;;;7.00;2.20;;;;;;;-0.04;86.54;101291.81;5008231;28;20069;-55
2021/04/07 03:07:44;;;;;;;6.10;1.77;;;;;;;-0.03;86.72;101293.53;4994807;28;20424;-55
2021/04/07 03:10:12;;;;;;;5.85;2.30;;;;;;;-0.04;86.85;101287.50;5011039;28;20061;-54
2021/04/07 03:12:42;;;;;;;6.57;2.70;;;;;;;0.03;86.63;101297.75;5008704;28;20050;-58
2021/04/07 03:15:09;;;;;;;10.98;3.22;;;;;;;0.03;86.66;101292.59;5012004;28;20057;-53
2021/04/07 03:17:39;;;;;;;8.23;3.03;;;;;;;0.01;86.78;101282.25;5010027;28;20038;-54
2021/04/07 03:20:10;;;;;;;7.47;3.42;;;;;;;-0.08;86.99;101287.56;5005791;28;20778;-55
2021/04/07 03:22:36;;;;;;;9.80;4.65;;;;;;;-0.07;87.10;101279.81;5014882;28;20493;-57
2021/04/07 03:25:05;;;;;;;13.23;4.50;;;;;;;0.00;87.15;101267.66;5016189;28;20042;-58
2021/04/07 03:27:32;;;;;;;10.43;4.95;;;;;;;-0.06;87.04;101268.56;5010407;28;20060;-58
2021/04/07 03:30:01;;;;;;;9.93;4.85;;;;;;;-0.02;86.94;101269.38;4995776;28;20057;-53
2021/04/07 03:32:30;;;;;;;12.73;3.72;;;;;;;-0.03;87.19;101267.66;4995662;28;20054;-57
2021/04/07 03:34:57;;;;;;;7.63;3.92;;;;;;;0.00;87.14;101265.06;5010007;28;20393;-54
2021/04/07 03:37:23;;;;;;;7.68;3.50;;;;;;;0.02;87.57;101263.28;4995145;28;20041;-51
2021/04/07 03:39:51;;;;;;;10.52;3.53;;;;;;;0.03;87.16;101259.84;5009455;28;20100;-53
2021/04/07 03:42:17;;;;;;;9.65;3.38;;;;;;;0.09;87.18;101261.47;5008573;28;20156;-52
2021/04/07 03:44:47;;;;;;;10.82;3.30;;;;;;;0.10;86.99;101261.44;5011040;28;20038;-56
2021/04/07 03:47:14;;;;;;;9.02;3.45;;;;;;;0.10;87.13;101261.44;5010241;28;20085;-54
2021/04/07 03:49:40;;;;;;;10.48;3.17;;;;;;;0.09;87.29;101254.56;5012149;28;20034;-56
2021/04/07 03:52:07;;;;;;;9.77;3.15;;;;;;;0.15;86.93;101254.47;5007807;28;20053;-56
2021/04/07 03:54:36;;;;;;;6.85;2.78;;;;;;;0.12;87.22;101257.13;5007509;28;20053;-53
2021/04/07 03:57:03;;;;;;;8.52;2.25;;;;;;;0.15;87.16;101254.47;5009457;28;20049;-56
2021/04/07 03:59:30;;;;;;;7.07;2.70;;;;;;;0.14;87.29;101252.75;5008080;28;20049;-55
2021/04/07 04:01:56;;;;;;;11.52;3.10;;;;;;;0.13;87.15;101251.03;5009969;28;20050;-56
2021/04/07 04:04:23;;;;;;;6.78;2.65;;;;;;;0.13;87.20;101258.81;5009997;28;20053;-57
2021/04/07 04:06:50;;;;;;;5.78;2.40;;;;;;;0.17;87.40;101260.47;5009131;28;20053;-57
2021/04/07 04:09:19;;;;;;;8.77;2.38;;;;;;;0.22;87.19;101262.13;5011540;28;20467;-55
2021/04/07 04:11:46;;;;;;;9.07;2.60;;;;;;;0.17;86.99;101259.63;5010627;28;20417;-53
2021/04/07 04:14:13;;;;;;;8.95;2.60;;;;;;;0.12;87.36;101267.47;5009534;28;20084;-56
2021/04/07 04:16:45;;;;;;;8.02;2.50;;;;;;;0.12;87.50;101258.81;5009500;28;20096;-55
2021/04/07 04:19:12;;;;;;;6.35;1.90;;;;;;;0.09;87.29;101258.88;4993585;28;20169;-57
2021/04/07 04:21:38;;;;;;;8.65;2.10;;;;;;;0.03;87.72;101252.06;4994689;28;20141;-52
2021/04/07 04:24:07;;;;;;;9.43;2.30;;;;;;;0.09;87.17;101251.97;5009385;28;20439;-54
2021/04/07 04:26:33;;;;;;;10.45;2.95;;;;;;;0.08;87.27;101262.34;5009140;28;20050;-56
2021/04/07 04:29:03;;;;;;;8.35;2.88;;;;;;;0.06;87.45;101248.59;4992219;28;20046;-56
2021/04/07 04:31:30;;;;;;;7.65;3.22;;;;;;;0.08;87.25;101245.09;5007111;28;20042;-56
2021/04/07 04:33:58;;;;;;;10.00;4.07;;;;;;;0.04;87.56;101234.81;5008861;28;20049;-57
2021/04/07 04:36:29;;;;;;;5.90;2.50;;;;;;;0.12;86.92;101228.66;5022474;28;20056;-56
2021/04/07 04:38:56;;;;;;;9.73;2.50;;;;;;;0.06;87.24;101226.16;5010370;28;20038;-58
2021/04/07 04:41:25;;;;;;;6.65;2.40;;;;;;;0.01;87.56;101230.53;5013651;28;20052;-57
2021/04/07 04:43:51;;;;;;;8.68;2.50;;;;;;;0.01;87.82;101227.09;5013834;28;20066;-56
2021/04/07 04:46:18;;;;;;;7.35;2.20;;;;;;;-0.01;87.89;101216.78;4993985;28;20141;-57
2021/04/07 04:48:47;;;;;;;7.93;2.10;;;;;;;0.09;87.55;101205.41;5005882;28;20045;-57
2021/04/07 04:51:14;;;;;;;7.45;2.08;;;;;;;0.10;87.41;101206.28;5012340;28;20145;-54
2021/04/07 04:53:41;;;;;;;7.03;2.20;;;;;;;0.05;87.49;101198.56;4999147;28;20058;-54
2021/04/07 04:56:11;;;;;;;4.50;2.08;;;;;;;0.05;87.73;101203.75;5013485;28;20080;-56
2021/04/07 04:58:38;;;;;;;6.88;2.15;;;;;;;0.12;87.21;101191.56;5014317;28;20057;-53
2021/04/07 05:01:10;;;;;;;8.48;2.15;;;;;;;0.15;87.23;101188.94;4997848;28;20136;-57
2021/04/07 05:03:39;;;;;;;7.20;2.20;;;;;;;0.14;87.43;101188.09;5014428;28;20487;-54
2021/04/07 05:06:06;;;;;;;8.27;2.20;;;;;;;0.15;87.41;101182.03;5030037;28;20389;-56
2021/04/07 05:08:33;;;;;;;6.28;2.00;;;;;;;0.11;87.76;101167.47;5013090;28;20059;-57
2021/04/07 05:11:02;;;;;;;4.82;2.33;;;;;;;0.13;87.44;101177.78;5013251;28;20068;-58
2021/04/07 05:13:29;;;;;;;5.13;2.45;;;;;;;0.09;88.06;101166.59;5011779;28;20038;-57
2021/04/07 05:15:55;;;;;;;6.65;2.53;;;;;;;0.07;87.91;101170.97;5007189;28;20489;-57
2021/04/07 05:18:27;;;;;;;6.68;2.65;;;;;;;0.12;87.77;101176.06;5014637;28;20100;-57
2021/04/07 05:20:55;;;;;;;7.03;2.25;;;;;;;0.06;88.11;101178.75;5014550;28;20050;-58
2021/04/07 05:23:23;;;;;;;8.68;2.80;;;;;;;0.09;87.82;101176.13;5010809;28;20572;-54
2021/04/07 05:25:50;;;;;;;11.27;3.38;;;;;;;0.08;87.79;101177.84;4976190;28;20078;-57
2021/04/07 05:28:22;;;;;;;6.78;2.75;;;;;;;0.06;88.25;101189.09;5006613;28;20042;-57
2021/04/07 05:31:04;;;;;;;9.13;3.03;;;;;;;0.07;88.12;101194.25;5007294;28;20583;-55
2021/04/07 05:33:33;;;;;;;;;;;;;;;0.14;88.08;101198.44;4992414;28;20050;-58
2021/04/07 05:36:10;;;;;;;5.13;2.15;;;;;;;0.19;87.75;101189.75;5007058;28;20021;-56
2021/04/07 05:38:43;;;;;;;9.52;2.70;;;;;;;0.18;88.05;101183.72;4975708;28;20056;-58
2021/04/07 05:41:16;;;;;;;7.63;2.60;;;;;;;0.24;88.14;101186.19;4994901;28;20048;-55
2021/04/07 05:43:46;;;;;;;6.88;3.30;;;;;;;0.28;87.65;101181.84;5012279;28;20049;-55
2021/04/07 05:46:13;;;;;;;7.22;3.17;;;;;;;0.26;87.56;101188.75;5012874;28;20042;-55
2021/04/07 05:48:40;;;;;;;6.93;2.90;;;;;;;0.27;87.62;101183.59;5010850;28;20129;-54
2021/04/07 05:51:16;;;;;;;6.40;3.05;;;;;;;0.32;87.42;101178.31;5010625;28;20129;-55
2021/04/07 05:53:50;;;;;;;5.25;2.60;;;;;;;0.32;86.83;101191.25;4995196;28;20436;-55
2021/04/07 05:56:25;;;;;;;5.45;3.03;;;;;;;0.36;87.36;101179.13;5024832;28;20042;-55
2021/04/07 05:58:52;;;;;;;6.68;2.85;;;;;;;0.42;87.33;101184.19;4994578;28;20073;-54
2021/04/07 06:01:20;;;;;;;5.22;2.58;;;;;;;0.40;87.14;101198.91;5010574;28;20408;-56
2021/04/07 06:03:54;;;;;;;5.05;2.03;;;;;;;0.37;86.89;101192.03;5011828;28;20045;-55
2021/04/07 06:06:24;;;;;;;3.97;2.10;;;;;;;0.26;87.12;101193.94;5010362;28;20075;-55
2021/04/07 06:08:57;;;;;;;4.53;2.20;;;;;;;0.28;86.86;101192.19;5007102;28;20396;-55
2021/04/07 06:11:29;;;;;;;5.97;2.20;;;;;;;0.22;87.28;101185.38;5010651;28;20050;-56
2021/04/07 06:14:01;;;;;;;3.72;2.20;;;;;;;0.22;87.09;101187.09;5010587;28;20393;-56
2021/04/07 06:16:31;;;;;;;5.03;2.55;;;;;;;0.23;87.02;101187.09;5011670;28;20046;-54
2021/04/07 06:19:00;;;;;;;9.43;4.05;;;;;;;0.17;87.41;101190.63;5010616;28;20131;-55
2021/04/07 06:21:26;;;;;;;8.23;5.00;;;;;;;0.21;87.63;101193.19;5026595;28;20108;-56
2021/04/07 06:23:55;;;;;;;9.73;5.68;;;;;;;0.24;87.96;101195.69;5011408;28;20453;-56
2021/04/07 06:26:24;;;;;;;8.93;5.75;;;;;;;0.24;88.01;101193.13;5010317;28;20077;-57
2021/04/07 06:28:57;;;;;;;10.38;6.57;;;;;;;0.33;87.87;101191.22;5010423;28;20081;-55
2021/04/07 06:31:29;;;;;;;9.60;6.03;;;;;;;0.45;87.77;101184.13;5010319;28;20143;-55
2021/04/07 06:34:05;;;;;;;8.85;5.85;;;;;;;0.47;87.66;101183.22;5011442;28;20104;-55
2021/04/07 06:36:34;;;;;;;8.95;5.22;;;;;;;0.55;88.11;101190.84;5009991;28;20049;-56
2021/04/07 06:39:03;;;;;;;8.68;4.82;;;;;;;0.59;88.14;101189.06;4993285;28;20148;-57
2021/04/07 06:41:35;;;;;;;7.55;4.45;;;;;;;0.60;87.87;101188.16;5009749;28;20046;-58
2021/04/07 06:44:08;;;;;;;8.52;4.47;;;;;;;0.63;87.79;101201.94;5004965;28;20576;-55
2021/04/07 06:46:35;;;;;;;9.93;4.97;;;;;;;0.66;87.99;101209.63;4979512;28;20102;-57
2021/04/07 06:49:09;;;;;;;7.85;4.55;;;;;;;0.66;87.96;101214.81;4990269;28;20056;-57
2021/04/07 06:51:45;;;;;;;10.25;4.88;;;;;;;0.74;87.85;101219.00;5011098;28;20392;-57
2021/04/07 06:54:11;;;;;;;7.90;4.40;;;;;;;0.78;88.22;101213.75;4993710;28;20073;-57
2021/04/07 06:56:38;;;;;;;8.50;4.53;;;;;;;0.83;88.05;101222.28;5010267;28;20088;-57
2021/04/07 06:59:05;;;;;;;8.85;5.38;;;;;;;0.83;88.21;101217.09;5010140;28;20066;-56
2021/04/07 07:01:32;;;;;;;9.20;4.45;;;;;;;0.86;88.26;101225.69;5010082;28;20378;-57
2021/04/07 07:03:58;;;;;;;9.15;4.57;;;;;;;0.93;88.29;101235.91;5011319;28;20074;-55
2021/04/07 07:06:25;;;;;;;7.25;4.75;;;;;;;0.96;88.52;101237.59;5011562;28;20048;-57
2021/04/07 07:08:52;;;;;;;7.82;4.20;;;;;;;1.02;87.89;101242.63;5010081;28;20115;-57
2021/04/07 07:11:22;;;;;;;7.47;4.65;;;;;;;1.10;88.28;101240.75;5024518;28;20046;-57
2021/04/07 07:13:49;;;;;;;7.85;4.68;;;;;;;1.20;88.40;101232.81;5009577;28;20137;-56
2021/04/07 07:16:26;;;;;;;7.57;4.35;;;;;;;1.32;88.88;101241.19;5010904;28;20603;-57
2021/04/07 07:18:56;;;;;;;7.10;3.88;;;;;;;1.42;89.13;101252.22;5008027;28;20061;-57
2021/04/07 07:21:25;;;;;;;8.57;4.30;;;;;;;1.47;88.42;101260.78;4995310;28;20107;-57
2021/04/07 07:23:52;;;;;;;10.95;3.85;;;;;;;1.51;88.77;101259.81;5010970;28;20046;-57
2021/04/07 07:26:20;;;;;;;8.98;4.35;;;;;;;1.60;89.02;101273.47;5008798;28;20060;-57
2021/04/07 07:28:55;;;;;;;7.25;3.70;;;;;;;1.59;89.33;101274.38;5009307;28;20042;-57
2021/04/07 07:31:30;;;;;;;12.95;4.35;;;;;;;1.73;89.15;101272.31;5007808;28;20046;-57
2021/04/07 07:33:59;;;;;;;9.48;4.20;;;;;;;1.71;89.24;101275.84;5021626;28;20057;-58
2021/04/07 07:36:28;;;;;;;9.40;3.88;;;;;;;1.76;89.43;101272.28;4987860;28;20052;-58
2021/04/07 07:38:57;;;;;;;10.25;4.18;;;;;;;1.85;89.63;101268.59;5018250;28;20053;-57
2021/04/07 07:41:30;;;;;;;11.68;3.75;;;;;;;2.06;89.76;101274.19;4990223;28;20053;-58
2021/04/07 07:44:16;;;;;;;10.82;3.47;;;;;;;2.25;89.13;101287.59;5003890;28;20073;-57
2021/04/07 07:46:42;;;;;;;11.48;3.75;;;;;;;2.31;89.50;101285.72;4990271;28;20579;-58
2021/04/07 07:49:19;;;;;;;13.80;4.13;;;;;;;2.35;90.13;101291.72;5005398;28;20542;-57
2021/04/07 07:51:49;;;;;;;9.77;3.20;;;;;;;2.38;89.70;101295.97;4990451;28;20046;-56
2021/04/07 07:54:18;;;;;;;8.73;2.97;;;;;;;2.42;89.94;101292.41;5003469;28;20048;-56
2021/04/07 07:56:47;;;;;;;13.00;3.22;;;;;;;2.50;89.70;101301.72;4990294;28;20045;-58
2021/04/07 07:59:29;;;;;;;10.20;3.17;;;;;;;2.53;90.35;101303.38;5008455;28;20041;-58
2021/04/07 08:01:56;;;;;;;10.65;3.13;;;;;;;2.54;89.64;101307.69;5027722;28;20052;-57
2021/04/07 08:04:23;;;;;;;11.50;2.50;;;;;;;2.57;89.70;101307.63;5013343;28;20042;-58
2021/04/07 08:06:50;;;;;;;11.43;2.70;;;;;;;2.59;89.58;101320.56;5011048;28;20058;-57
2021/04/07 08:09:17;;;;;;;9.35;2.28;;;;;;;2.69;89.25;101327.25;5010835;28;20042;-57
2021/04/07 08:11:48;;;;;;;12.40;2.03;;;;;;;2.69;89.77;101328.09;5008873;28;20483;-58
2021/04/07 08:14:16;;;;;;;9.32;2.03;;;;;;;2.81;89.05;101334.75;4996441;28;20382;-57
2021/04/07 08:16:47;;;;;;;10.93;2.00;;;;;;;2.90;89.71;101335.41;5013438;28;20046;-57
2021/04/07 08:19:15;;;;;;;9.25;2.38;;;;;;;2.97;89.17;101343.00;4995123;28;20042;-52
2021/04/07 08:21:46;;;;;;;16.35;1.92;;;;;;;3.10;88.98;101340.94;5011024;28;20124;-51
2021/04/07 08:24:14;;;;;;;17.27;2.35;;;;;;;3.18;88.82;101346.78;5011951;28;20128;-50
2021/04/07 08:26:42;;;;;;;9.45;2.28;;;;;;;3.21;88.35;101351.06;5013278;28;20104;-49
2021/04/07 08:29:09;;;;;;;18.58;2.80;;;;;;;3.24;88.09;101356.16;5011701;28;20568;-58
2021/04/07 08:31:38;;;;;;;16.40;2.42;;;;;;;3.34;87.54;101360.25;4994703;28;20046;-57
2021/04/07 08:34:06;;;;;;;16.77;2.20;;;;;;;3.29;87.84;101382.06;5007204;28;20049;-57
2021/04/07 08:36:34;;;;;;;12.68;2.13;;;;;;;3.31;88.25;101377.66;4996110;28;20046;-57
2021/04/07 08:39:06;;;;;;;13.18;1.98;;;;;;;3.33;86.66;101375.88;4995952;28;20069;-57
2021/04/07 08:41:33;;;;;;;9.77;1.80;;;;;;;3.43;86.48;101386.91;4990660;28;20050;-57
2021/04/07 08:44:02;;;;;;;14.57;2.03;;;;;;;3.65;86.53;101387.16;5013080;28;20129;-56
2021/04/07 08:46:38;;;;;;;11.55;2.10;;;;;;;3.94;86.53;101391.56;5010968;28;20042;-55
2021/04/07 08:49:05;;;;;;;12.20;2.03;;;;;;;3.97;86.72;101393.22;5010262;28;20057;-57
2021/04/07 08:51:34;;;;;;;12.52;2.25;;;;;;;4.24;85.48;101386.34;5011559;28;20058;-55
2021/04/07 08:54:01;;;;;;;12.30;2.25;;;;;;;4.48;85.28;101399.53;5012468;28;20064;-56
2021/04/07 08:56:32;;;;;;;16.15;2.03;;;;;;;4.67;84.43;101389.38;5013295;28;20088;-55
2021/04/07 08:59:01;;;;;;;20.08;2.80;;;;;;;4.69;83.75;101395.38;4971854;28;20052;-55
2021/04/07 09:01:29;;;;;;;19.85;2.60;;;;;;;4.78;82.88;101402.91;5003159;28;20084;-54
2021/04/07 09:04:10;;;;;;;18.50;2.42;;;;;;;4.90;82.65;101414.69;5003694;28;20046;-55
2021/04/07 09:06:59;;;;;;;18.27;3.47;;;;;;;4.90;81.63;101406.88;5003869;28;20052;-56
2021/04/07 09:09:30;;;;;;;21.33;2.90;;;;;;;5.03;80.66;101410.81;5003731;28;20810;-56
2021/04/07 09:11:56;;;;;;;17.75;3.22;;;;;;;5.13;82.25;101423.53;4993070;28;20509;-57
2021/04/07 09:14:23;;;;;;;25.73;3.50;;;;;;;5.15;79.68;101424.31;4993861;28;20177;-57
2021/04/07 09:17:01;;;;;;;18.83;3.17;;;;;;;5.16;78.26;101433.88;4992571;28;20073;-54
2021/04/07 09:19:31;;;;;;;19.88;3.78;;;;;;;5.16;78.08;101434.69;4975975;28;20057;-55
2021/04/07 09:22:07;;;;;;;21.42;3.20;;;;;;;5.21;77.97;101443.22;5011599;28;20512;-54
2021/04/07 09:24:42;;;;;;;15.93;3.03;;;;;;;5.20;78.05;101438.91;5012161;28;20038;-55
2021/04/07 09:27:24;;;;;;;21.48;3.97;;;;;;;5.22;78.24;101446.69;5012130;28;20089;-54
2021/04/07 09:29:51;;;;;;;18.58;3.33;;;;;;;5.20;78.72;101444.13;5013449;28;20048;-55
2021/04/07 09:32:20;;;;;;;24.15;3.80;;;;;;;5.29;78.64;101455.16;5013670;28;20037;-54
2021/04/07 09:34:47;;;;;;;20.13;3.13;;;;;;;5.36;77.40;101461.91;5013091;28;20408;-55
2021/04/07 09:37:14;;;;;;;29.88;4.53;;;;;;;5.83;76.29;101462.00;5012387;28;20066;-55
2021/04/07 09:39:41;;;;;;;22.50;4.35;;;;;;;6.17;74.91;101462.59;5012339;28;20049;-55
2021/04/07 09:42:08;;;;;;;19.08;3.80;;;;;;;6.32;73.94;101459.41;5011494;28;20508;-56
2021/04/07 09:44:35;;;;;;;21.55;4.00;;;;;;;6.76;73.35;101467.31;5011798;28;20125;-56
2021/04/07 09:47:05;;;;;;;24.02;3.70;;;;;;;6.97;71.74;101464.75;4988958;28;20100;-55
2021/04/07 09:49:33;;;;;;;19.98;3.22;;;;;;;6.82;70.71;101468.81;4996228;28;20139;-56
2021/04/07 09:52:00;;;;;;;15.32;2.65;;;;;;;6.58;72.48;101473.25;5012145;28;20099;-55
2021/04/07 09:54:28;;;;;;;17.05;2.97;;;;;;;6.25;72.99;101484.88;5011519;28;20068;-56
2021/04/07 09:57:05;;;;;;;13.30;2.58;;;;;;;6.16;74.86;101497.44;5007132;28;20046;-55
2021/04/07 09:59:46;;;;;;;16.30;3.28;;;;;;;6.16;74.16;101487.88;4968501;28;20050;-56
2021/04/07 10:02:21;;;;;;;23.98;3.55;;;;;;;6.17;74.57;101513.06;5028457;28;20049;-54
2021/04/07 10:04:49;;;;;;;14.77;2.60;;;;;;;5.84;74.31;101520.31;5013163;28;20388;-56
2021/04/07 10:07:20;;;;;;;21.27;2.95;;;;;;;5.30;73.77;101524.69;5011487;28;20385;-55
2021/04/07 10:09:51;;;;;;;16.08;2.30;;;;;;;5.05;74.79;101535.91;5012873;28;20069;-54
2021/04/07 10:12:19;;;;;;;19.05;3.03;;;;;;;4.91;76.01;101533.72;5011572;28;20049;-55
2021/04/07 10:14:50;;;;;;;19.00;2.65;;;;;;;4.89;77.16;101517.25;5012254;28;20061;-54
2021/04/07 10:17:30;;;;;;;17.05;3.17;;;;;;;5.04;77.23;101528.97;4995230;28;20453;-55
2021/04/07 10:20:06;;;;;;;20.45;3.53;;;;;;;5.13;77.49;101543.50;4993774;28;20050;-56
2021/04/07 10:22:32;;;;;;;15.45;3.40;;;;;;;5.40;76.06;101536.53;5011445;28;20061;-56
2021/04/07 10:25:13;;;;;;;20.02;3.00;;;;;;;5.83;79.97;101534.25;5010594;28;20057;-56
2021/04/07 10:27:41;;;;;;;20.92;3.05;;;;;;;6.23;76.52;101532.88;5010713;28;20050;-55
2021/04/07 10:30:13;;;;;;;18.73;3.30;;;;;;;6.67;78.37;101530.41;5010614;28;20141;-56
2021/04/07 10:32:44;;;;;;;16.33;3.03;;;;;;;7.11;75.03;101530.41;5012489;28;20514;-56
2021/04/07 10:35:32;;;;;;;22.77;2.92;;;;;;;7.20;74.07;101534.47;5012720;28;20050;-57
2021/04/07 10:38:07;;;;;;;23.88;3.78;;;;;;;6.93;71.30;101531.16;5012339;28;20061;-56
2021/04/07 10:40:39;;;;;;;21.92;4.72;;;;;;;6.97;73.54;101540.59;5011808;28;20038;-56
2021/04/07 10:43:13;;;;;;;15.60;3.15;;;;;;;6.84;68.43;101539.34;5011107;28;20050;-56
2021/04/07 10:45:40;;;;;;;19.17;3.13;;;;;;;6.79;67.52;101543.91;5011041;28;20127;-57
2021/04/07 10:48:06;;;;;;;13.50;2.42;;;;;;;7.07;66.89;101538.47;4975743;28;20049;-58
2021/04/07 10:50:35;;;;;;;14.50;2.85;;;;;;;7.23;63.51;101531.72;5011092;28;20045;-57
2021/04/07 10:53:03;;;;;;;12.35;2.35;;;;;;;7.51;61.85;101545.44;5011109;28;20050;-55
2021/04/07 10:55:30;;;;;;;17.08;2.80;;;;;;;7.72;61.93;101554.19;5010888;28;20046;-56
2021/04/07 10:57:58;;;;;;;16.38;3.13;;;;;;;7.65;65.85;101550.09;5010313;28;20452;-59
2021/04/07 11:00:26;;;;;;;12.68;2.85;;;;;;;7.14;67.22;101566.06;5011293;28;20121;-58
2021/04/07 11:02:52;;;;;;;14.30;3.20;;;;;;;6.43;69.03;101576.56;5011167;28;20058;-58
2021/04/07 11:05:23;;;;;;;14.63;2.92;;;;;;;5.98;70.92;101587.72;5010892;28;20493;-58
2021/04/07 11:08:04;;;;;;;15.90;2.95;;;;;;;5.86;72.16;101617.69;5011871;28;20049;-58
2021/04/07 11:10:37;;;;;;;13.90;3.25;;;;;;;5.59;72.37;101608.09;5010603;28;20050;-56
2021/04/07 11:13:04;;;;;;;17.15;3.08;;;;;;;5.45;72.82;101601.59;5010443;28;20681;-54
2021/04/07 11:15:31;;;;;;;17.42;2.88;;;;;;;5.59;72.43;101594.22;5011400;28;20046;-55
2021/04/07 11:17:57;;;;;;;17.75;3.42;;;;;;;5.54;71.66;101596.94;5010711;28;20045;-56
2021/04/07 11:20:25;;;;;;;17.00;2.55;;;;;;;5.77;72.85;101600.56;5011685;28;20045;-56
2021/04/07 11:22:51;;;;;;;20.67;3.03;;;;;;;6.15;72.09;101603.69;5011730;28;20046;-55
2021/04/07 11:25:20;;;;;;;23.88;2.92;;;;;;;6.32;72.29;101602.25;5010755;28;20061;-55
2021/04/07 11:27:52;;;;;;;22.33;3.17;;;;;;;6.56;69.65;101600.53;4994369;28;20388;-55
2021/04/07 11:30:20;;;;;;;24.50;3.95;;;;;;;6.64;69.01;101608.06;5010554;28;20046;-55
2021/04/07 11:32:58;;;;;;;18.85;3.17;;;;;;;6.71;69.18;101609.56;5010994;28;20100;-56
2021/04/07 11:35:52;;;;;;;19.40;3.08;;;;;;;6.72;69.27;101619.09;5014746;28;20061;-56